sensor_id;sensor_type;location;lat;lon;timestamp;P1;durP1;ratioP1;P2;durP2;ratioP2
70761;SDS011;58360;0.000;0.000;2023-01-20T00:01:46;63.78;;;23.55;;
70761;SDS011;58360;0.000;0.000;2023-01-20T00:04:15;65.53;;;25.23;;
70761;SDS011;58360;0.000;0.000;2023-01-20T00:06:46;61.55;;;24.85;;
70761;SDS011;58360;0.000;0.000;2023-01-20T00:09:15;59.90;;;23.77;;
70761;SDS011;58360;0.000;0.000;2023-01-20T00:11:44;66.18;;;23.65;;
70761;SDS011;58360;0.000;0.000;2023-01-20T00:14:16;64.03;;;24.83;;
70761;SDS011;58360;0.000;0.000;2023-01-20T00:16:45;61.78;;;23.65;;
70761;SDS011;58360;0.000;0.000;2023-01-20T00:19:14;63.60;;;26.25;;
70761;SDS011;58360;0.000;0.000;2023-01-20T00:21:42;61.50;;;25.13;;
70761;SDS011;58360;0.000;0.000;2023-01-20T00:24:10;65.50;;;25.08;;
70761;SDS011;58360;0.000;0.000;2023-01-20T00:26:38;56.00;;;22.88;;
70761;SDS011;58360;0.000;0.000;2023-01-20T00:29:07;61.40;;;23.27;;
70761;SDS011;58360;0.000;0.000;2023-01-20T00:31:35;56.00;;;20.27;;
70761;SDS011;58360;0.000;0.000;2023-01-20T00:34:03;52.25;;;21.63;;
70761;SDS011;58360;0.000;0.000;2023-01-20T00:36:32;60.75;;;22.02;;
70761;SDS011;58360;0.000;0.000;2023-01-20T00:39:00;57.55;;;22.65;;
70761;SDS011;58360;0.000;0.000;2023-01-20T00:41:29;62.47;;;23.10;;
70761;SDS011;58360;0.000;0.000;2023-01-20T00:43:57;60.28;;;23.05;;
70761;SDS011;58360;0.000;0.000;2023-01-20T00:46:25;61.55;;;23.92;;
70761;SDS011;58360;0.000;0.000;2023-01-20T00:48:53;61.90;;;24.67;;
70761;SDS011;58360;0.000;0.000;2023-01-20T00:51:22;61.88;;;25.23;;
70761;SDS011;58360;0.000;0.000;2023-01-20T00:53:51;62.47;;;23.77;;
70761;SDS011;58360;0.000;0.000;2023-01-20T00:56:20;64.30;;;24.27;;
70761;SDS011;58360;0.000;0.000;2023-01-20T00:58:50;66.50;;;24.17;;
70761;SDS011;58360;0.000;0.000;2023-01-20T01:01:19;65.70;;;22.95;;
70761;SDS011;58360;0.000;0.000;2023-01-20T01:03:48;58.22;;;23.17;;
70761;SDS011;58360;0.000;0.000;2023-01-20T01:06:18;63.42;;;24.00;;
70761;SDS011;58360;0.000;0.000;2023-01-20T01:08:47;68.60;;;25.95;;
70761;SDS011;58360;0.000;0.000;2023-01-20T01:11:16;66.63;;;25.75;;
70761;SDS011;58360;0.000;0.000;2023-01-20T01:13:45;57.65;;;24.95;;
70761;SDS011;58360;0.000;0.000;2023-01-20T01:16:11;71.72;;;29.25;;
70761;SDS011;58360;0.000;0.000;2023-01-20T01:18:41;69.20;;;27.38;;
70761;SDS011;58360;0.000;0.000;2023-01-20T01:21:10;63.83;;;26.70;;
70761;SDS011;58360;0.000;0.000;2023-01-20T01:23:39;65.90;;;26.20;;
70761;SDS011;58360;0.000;0.000;2023-01-20T01:26:07;65.63;;;25.08;;
70761;SDS011;58360;0.000;0.000;2023-01-20T01:28:35;61.50;;;25.40;;
70761;SDS011;58360;0.000;0.000;2023-01-20T01:31:04;68.28;;;27.27;;
70761;SDS011;58360;0.000;0.000;2023-01-20T01:33:32;62.60;;;25.35;;
70761;SDS011;58360;0.000;0.000;2023-01-20T01:36:01;67.70;;;25.48;;
70761;SDS011;58360;0.000;0.000;2023-01-20T01:38:30;57.80;;;24.25;;
70761;SDS011;58360;0.000;0.000;2023-01-20T01:40:59;62.28;;;24.40;;
70761;SDS011;58360;0.000;0.000;2023-01-20T01:43:31;54.55;;;23.27;;
70761;SDS011;58360;0.000;0.000;2023-01-20T01:46:02;62.20;;;25.25;;
70761;SDS011;58360;0.000;0.000;2023-01-20T01:48:35;56.15;;;22.70;;
70761;SDS011;58360;0.000;0.000;2023-01-20T01:51:14;61.95;;;25.42;;
70761;SDS011;58360;0.000;0.000;2023-01-20T01:53:52;51.55;;;23.38;;
70761;SDS011;58360;0.000;0.000;2023-01-20T01:56:25;60.70;;;23.15;;
70761;SDS011;58360;0.000;0.000;2023-01-20T01:58:56;62.42;;;24.10;;
70761;SDS011;58360;0.000;0.000;2023-01-20T02:01:26;61.28;;;23.90;;
70761;SDS011;58360;0.000;0.000;2023-01-20T02:03:59;72.05;;;25.05;;
70761;SDS011;58360;0.000;0.000;2023-01-20T02:06:58;60.28;;;25.05;;
70761;SDS011;58360;0.000;0.000;2023-01-20T02:09:29;65.47;;;27.30;;
70761;SDS011;58360;0.000;0.000;2023-01-20T02:12:01;65.03;;;27.20;;
70761;SDS011;58360;0.000;0.000;2023-01-20T02:14:33;75.53;;;27.38;;
70761;SDS011;58360;0.000;0.000;2023-01-20T02:22:51;67.30;;;25.75;;
70761;SDS011;58360;0.000;0.000;2023-01-20T02:34:07;56.45;;;24.85;;
70761;SDS011;58360;0.000;0.000;2023-01-20T02:36:42;65.63;;;26.38;;
70761;SDS011;58360;0.000;0.000;2023-01-20T02:39:19;63.63;;;25.35;;
70761;SDS011;58360;0.000;0.000;2023-01-20T02:41:57;63.90;;;27.25;;
70761;SDS011;58360;0.000;0.000;2023-01-20T02:44:34;69.45;;;27.35;;
70761;SDS011;58360;0.000;0.000;2023-01-20T02:47:08;71.65;;;27.17;;
70761;SDS011;58360;0.000;0.000;2023-01-20T02:49:52;73.60;;;27.20;;
70761;SDS011;58360;0.000;0.000;2023-01-20T02:52:27;68.78;;;26.13;;
70761;SDS011;58360;0.000;0.000;2023-01-20T02:55:05;64.40;;;25.92;;
70761;SDS011;58360;0.000;0.000;2023-01-20T02:57:38;70.07;;;27.23;;
70761;SDS011;58360;0.000;0.000;2023-01-20T03:00:14;76.90;;;27.65;;
70761;SDS011;58360;0.000;0.000;2023-01-20T03:02:46;72.72;;;25.77;;
70761;SDS011;58360;0.000;0.000;2023-01-20T03:07:51;58.33;;;23.98;;
70761;SDS011;58360;0.000;0.000;2023-01-20T03:10:19;69.90;;;26.15;;
70761;SDS011;58360;0.000;0.000;2023-01-20T03:15:29;59.47;;;24.15;;
70761;SDS011;58360;0.000;0.000;2023-01-20T03:18:03;67.18;;;23.48;;
70761;SDS011;58360;0.000;0.000;2023-01-20T03:20:31;63.47;;;24.92;;
70761;SDS011;58360;0.000;0.000;2023-01-20T03:22:59;66.68;;;24.85;;
70761;SDS011;58360;0.000;0.000;2023-01-20T03:25:27;63.33;;;25.50;;
70761;SDS011;58360;0.000;0.000;2023-01-20T03:27:52;63.00;;;24.10;;
70761;SDS011;58360;0.000;0.000;2023-01-20T03:30:20;63.13;;;25.80;;
70761;SDS011;58360;0.000;0.000;2023-01-20T03:32:49;66.90;;;26.85;;
70761;SDS011;58360;0.000;0.000;2023-01-20T03:35:18;72.28;;;26.10;;
70761;SDS011;58360;0.000;0.000;2023-01-20T03:37:46;61.45;;;24.63;;
70761;SDS011;58360;0.000;0.000;2023-01-20T03:40:15;66.45;;;24.58;;
70761;SDS011;58360;0.000;0.000;2023-01-20T03:42:57;62.60;;;26.65;;
70761;SDS011;58360;0.000;0.000;2023-01-20T03:45:35;63.80;;;25.17;;
70761;SDS011;58360;0.000;0.000;2023-01-20T03:48:19;61.90;;;25.15;;
70761;SDS011;58360;0.000;0.000;2023-01-20T03:56:27;58.13;;;24.88;;
70761;SDS011;58360;0.000;0.000;2023-01-20T03:59:06;65.00;;;25.17;;
70761;SDS011;58360;0.000;0.000;2023-01-20T04:01:39;57.38;;;23.92;;
70761;SDS011;58360;0.000;0.000;2023-01-20T04:04:12;62.83;;;24.10;;
70761;SDS011;58360;0.000;0.000;2023-01-20T04:06:44;58.55;;;24.50;;
70761;SDS011;58360;0.000;0.000;2023-01-20T04:09:19;56.83;;;22.45;;
70761;SDS011;58360;0.000;0.000;2023-01-20T04:11:51;57.83;;;24.17;;
70761;SDS011;58360;0.000;0.000;2023-01-20T04:14:19;60.80;;;23.67;;
70761;SDS011;58360;0.000;0.000;2023-01-20T04:16:49;61.70;;;24.23;;
70761;SDS011;58360;0.000;0.000;2023-01-20T04:19:24;54.50;;;22.65;;
70761;SDS011;58360;0.000;0.000;2023-01-20T04:22:06;62.38;;;24.35;;
70761;SDS011;58360;0.000;0.000;2023-01-20T04:25:02;52.53;;;22.33;;
70761;SDS011;58360;0.000;0.000;2023-01-20T04:27:38;55.47;;;22.27;;
70761;SDS011;58360;0.000;0.000;2023-01-20T04:30:08;59.88;;;23.17;;
70761;SDS011;58360;0.000;0.000;2023-01-20T04:32:36;54.97;;;22.13;;
70761;SDS011;58360;0.000;0.000;2023-01-20T04:35:02;54.28;;;23.40;;
70761;SDS011;58360;0.000;0.000;2023-01-20T04:37:31;55.67;;;23.58;;
70761;SDS011;58360;0.000;0.000;2023-01-20T04:39:58;51.80;;;20.80;;
70761;SDS011;58360;0.000;0.000;2023-01-20T04:42:26;52.85;;;22.17;;
70761;SDS011;58360;0.000;0.000;2023-01-20T04:44:55;46.78;;;21.10;;
70761;SDS011;58360;0.000;0.000;2023-01-20T04:47:22;53.25;;;21.80;;
70761;SDS011;58360;0.000;0.000;2023-01-20T04:49:50;55.90;;;22.15;;
70761;SDS011;58360;0.000;0.000;2023-01-20T04:52:18;47.40;;;20.27;;
70761;SDS011;58360;0.000;0.000;2023-01-20T04:54:47;55.00;;;23.88;;
70761;SDS011;58360;0.000;0.000;2023-01-20T04:57:16;51.15;;;22.23;;
70761;SDS011;58360;0.000;0.000;2023-01-20T04:59:43;50.70;;;21.88;;
70761;SDS011;58360;0.000;0.000;2023-01-20T05:02:11;52.95;;;20.08;;
70761;SDS011;58360;0.000;0.000;2023-01-20T05:04:37;50.17;;;21.15;;
70761;SDS011;58360;0.000;0.000;2023-01-20T05:07:03;54.13;;;23.05;;
70761;SDS011;58360;0.000;0.000;2023-01-20T05:09:31;50.65;;;21.77;;
70761;SDS011;58360;0.000;0.000;2023-01-20T05:11:59;48.22;;;20.63;;
70761;SDS011;58360;0.000;0.000;2023-01-20T05:14:40;53.25;;;20.38;;
70761;SDS011;58360;0.000;0.000;2023-01-20T05:17:05;45.30;;;20.65;;
70761;SDS011;58360;0.000;0.000;2023-01-20T05:19:33;50.33;;;21.65;;
70761;SDS011;58360;0.000;0.000;2023-01-20T05:22:01;50.17;;;22.67;;
70761;SDS011;58360;0.000;0.000;2023-01-20T05:24:29;54.15;;;22.27;;
70761;SDS011;58360;0.000;0.000;2023-01-20T05:26:59;50.75;;;22.10;;
70761;SDS011;58360;0.000;0.000;2023-01-20T05:29:27;49.28;;;20.80;;
70761;SDS011;58360;0.000;0.000;2023-01-20T05:31:53;51.67;;;23.77;;
70761;SDS011;58360;0.000;0.000;2023-01-20T05:34:21;55.05;;;23.38;;
70761;SDS011;58360;0.000;0.000;2023-01-20T05:36:51;52.58;;;21.63;;
70761;SDS011;58360;0.000;0.000;2023-01-20T05:39:20;51.15;;;22.33;;
70761;SDS011;58360;0.000;0.000;2023-01-20T05:41:48;53.28;;;22.20;;
70761;SDS011;58360;0.000;0.000;2023-01-20T05:44:16;50.20;;;21.88;;
70761;SDS011;58360;0.000;0.000;2023-01-20T05:46:42;48.45;;;20.80;;
70761;SDS011;58360;0.000;0.000;2023-01-20T05:49:11;49.15;;;21.15;;
70761;SDS011;58360;0.000;0.000;2023-01-20T05:51:40;53.90;;;20.80;;
70761;SDS011;58360;0.000;0.000;2023-01-20T05:54:08;51.75;;;21.70;;
70761;SDS011;58360;0.000;0.000;2023-01-20T05:56:36;47.72;;;21.67;;
70761;SDS011;58360;0.000;0.000;2023-01-20T05:59:03;46.72;;;21.50;;
70761;SDS011;58360;0.000;0.000;2023-01-20T06:01:31;40.22;;;19.88;;
70761;SDS011;58360;0.000;0.000;2023-01-20T06:03:57;45.35;;;21.58;;
70761;SDS011;58360;0.000;0.000;2023-01-20T06:06:25;42.28;;;19.60;;
70761;SDS011;58360;0.000;0.000;2023-01-20T06:08:51;38.90;;;19.52;;
70761;SDS011;58360;0.000;0.000;2023-01-20T06:11:17;52.08;;;22.08;;
70761;SDS011;58360;0.000;0.000;2023-01-20T06:13:46;54.25;;;21.77;;
70761;SDS011;58360;0.000;0.000;2023-01-20T06:16:17;44.65;;;21.08;;
70761;SDS011;58360;0.000;0.000;2023-01-20T06:18:46;50.33;;;21.00;;
70761;SDS011;58360;0.000;0.000;2023-01-20T06:21:14;40.42;;;20.13;;
70761;SDS011;58360;0.000;0.000;2023-01-20T06:23:40;42.80;;;20.25;;
70761;SDS011;58360;0.000;0.000;2023-01-20T06:26:09;49.15;;;21.27;;
70761;SDS011;58360;0.000;0.000;2023-01-20T06:28:38;46.20;;;20.73;;
70761;SDS011;58360;0.000;0.000;2023-01-20T06:31:08;45.25;;;19.70;;
70761;SDS011;58360;0.000;0.000;2023-01-20T06:33:38;46.72;;;20.98;;
70761;SDS011;58360;0.000;0.000;2023-01-20T06:36:07;42.80;;;19.33;;
70761;SDS011;58360;0.000;0.000;2023-01-20T06:38:34;46.03;;;20.75;;
70761;SDS011;58360;0.000;0.000;2023-01-20T06:41:05;52.03;;;21.02;;
70761;SDS011;58360;0.000;0.000;2023-01-20T06:43:35;83.95;;;29.85;;
70761;SDS011;58360;0.000;0.000;2023-01-20T06:46:04;47.63;;;20.65;;
70761;SDS011;58360;0.000;0.000;2023-01-20T06:48:31;47.03;;;21.77;;
70761;SDS011;58360;0.000;0.000;2023-01-20T06:51:02;45.95;;;20.98;;
70761;SDS011;58360;0.000;0.000;2023-01-20T06:53:36;40.47;;;19.65;;
70761;SDS011;58360;0.000;0.000;2023-01-20T06:56:05;47.13;;;19.83;;
70761;SDS011;58360;0.000;0.000;2023-01-20T06:58:31;44.78;;;20.40;;
70761;SDS011;58360;0.000;0.000;2023-01-20T07:01:03;48.90;;;19.77;;
70761;SDS011;58360;0.000;0.000;2023-01-20T07:03:32;51.83;;;21.15;;
70761;SDS011;58360;0.000;0.000;2023-01-20T07:06:47;47.75;;;20.83;;
70761;SDS011;58360;0.000;0.000;2023-01-20T07:09:02;48.13;;;20.52;;
70761;SDS011;58360;0.000;0.000;2023-01-20T07:11:29;41.25;;;20.75;;
70761;SDS011;58360;0.000;0.000;2023-01-20T07:13:55;48.30;;;20.48;;
70761;SDS011;58360;0.000;0.000;2023-01-20T07:16:21;44.13;;;21.30;;
70761;SDS011;58360;0.000;0.000;2023-01-20T07:18:51;50.38;;;19.92;;
70761;SDS011;58360;0.000;0.000;2023-01-20T07:21:17;43.40;;;20.30;;
70761;SDS011;58360;0.000;0.000;2023-01-20T07:23:46;52.50;;;20.10;;
70761;SDS011;58360;0.000;0.000;2023-01-20T07:26:15;47.30;;;20.65;;
70761;SDS011;58360;0.000;0.000;2023-01-20T07:28:48;48.70;;;21.38;;
70761;SDS011;58360;0.000;0.000;2023-01-20T07:31:17;43.72;;;19.77;;
70761;SDS011;58360;0.000;0.000;2023-01-20T07:33:47;48.55;;;20.55;;
70761;SDS011;58360;0.000;0.000;2023-01-20T07:36:16;51.55;;;20.88;;
70761;SDS011;58360;0.000;0.000;2023-01-20T07:38:47;55.90;;;21.50;;
70761;SDS011;58360;0.000;0.000;2023-01-20T07:41:14;54.47;;;20.98;;
70761;SDS011;58360;0.000;0.000;2023-01-20T07:43:45;50.15;;;21.13;;
70761;SDS011;58360;0.000;0.000;2023-01-20T07:46:13;53.72;;;22.08;;
70761;SDS011;58360;0.000;0.000;2023-01-20T07:48:40;53.88;;;22.08;;
70761;SDS011;58360;0.000;0.000;2023-01-20T07:51:06;50.70;;;21.38;;
70761;SDS011;58360;0.000;0.000;2023-01-20T07:53:35;54.33;;;22.67;;
70761;SDS011;58360;0.000;0.000;2023-01-20T07:56:03;53.58;;;22.70;;
70761;SDS011;58360;0.000;0.000;2023-01-20T07:58:31;57.33;;;22.42;;
70761;SDS011;58360;0.000;0.000;2023-01-20T08:01:10;50.55;;;22.40;;
70761;SDS011;58360;0.000;0.000;2023-01-20T08:03:43;52.47;;;22.17;;
70761;SDS011;58360;0.000;0.000;2023-01-20T08:06:11;53.60;;;22.95;;
70761;SDS011;58360;0.000;0.000;2023-01-20T08:08:38;57.28;;;22.38;;
70761;SDS011;58360;0.000;0.000;2023-01-20T08:11:04;52.70;;;22.27;;
70761;SDS011;58360;0.000;0.000;2023-01-20T08:13:31;48.75;;;21.30;;
70761;SDS011;58360;0.000;0.000;2023-01-20T08:16:00;58.72;;;24.13;;
70761;SDS011;58360;0.000;0.000;2023-01-20T08:18:28;49.38;;;23.30;;
70761;SDS011;58360;0.000;0.000;2023-01-20T08:20:54;53.45;;;22.55;;
70761;SDS011;58360;0.000;0.000;2023-01-20T08:23:21;57.95;;;24.45;;
70761;SDS011;58360;0.000;0.000;2023-01-20T08:25:47;58.78;;;24.30;;
70761;SDS011;58360;0.000;0.000;2023-01-20T08:28:13;57.53;;;24.63;;
70761;SDS011;58360;0.000;0.000;2023-01-20T08:30:39;56.33;;;24.58;;
70761;SDS011;58360;0.000;0.000;2023-01-20T08:33:05;64.55;;;24.45;;
70761;SDS011;58360;0.000;0.000;2023-01-20T08:35:30;54.25;;;23.25;;
70761;SDS011;58360;0.000;0.000;2023-01-20T08:37:58;54.38;;;22.13;;
70761;SDS011;58360;0.000;0.000;2023-01-20T08:40:24;55.22;;;23.20;;
70761;SDS011;58360;0.000;0.000;2023-01-20T08:42:49;55.08;;;23.90;;
70761;SDS011;58360;0.000;0.000;2023-01-20T08:45:15;51.55;;;22.90;;
70761;SDS011;58360;0.000;0.000;2023-01-20T08:47:43;50.75;;;22.67;;
70761;SDS011;58360;0.000;0.000;2023-01-20T08:50:10;55.20;;;24.00;;
70761;SDS011;58360;0.000;0.000;2023-01-20T08:52:38;49.15;;;22.60;;
70761;SDS011;58360;0.000;0.000;2023-01-20T08:55:04;55.05;;;22.48;;
70761;SDS011;58360;0.000;0.000;2023-01-20T08:57:30;45.53;;;22.75;;
70761;SDS011;58360;0.000;0.000;2023-01-20T08:59:56;57.03;;;23.60;;
70761;SDS011;58360;0.000;0.000;2023-01-20T09:02:22;54.28;;;21.83;;
70761;SDS011;58360;0.000;0.000;2023-01-20T09:04:48;52.92;;;23.10;;
70761;SDS011;58360;0.000;0.000;2023-01-20T09:07:15;49.33;;;21.52;;
70761;SDS011;58360;0.000;0.000;2023-01-20T09:09:42;46.67;;;22.38;;
70761;SDS011;58360;0.000;0.000;2023-01-20T09:12:08;46.03;;;21.50;;
70761;SDS011;58360;0.000;0.000;2023-01-20T09:14:34;45.15;;;21.40;;
70761;SDS011;58360;0.000;0.000;2023-01-20T09:17:00;40.08;;;20.65;;
70761;SDS011;58360;0.000;0.000;2023-01-20T09:19:28;40.75;;;19.65;;
70761;SDS011;58360;0.000;0.000;2023-01-20T09:22:18;45.90;;;20.38;;
70761;SDS011;58360;0.000;0.000;2023-01-20T09:24:44;41.90;;;19.55;;
70761;SDS011;58360;0.000;0.000;2023-01-20T09:27:12;49.45;;;20.55;;
70761;SDS011;58360;0.000;0.000;2023-01-20T09:29:43;35.85;;;19.30;;
70761;SDS011;58360;0.000;0.000;2023-01-20T09:32:11;45.05;;;21.30;;
70761;SDS011;58360;0.000;0.000;2023-01-20T09:34:39;40.28;;;18.38;;
70761;SDS011;58360;0.000;0.000;2023-01-20T09:37:07;49.83;;;19.80;;
70761;SDS011;58360;0.000;0.000;2023-01-20T09:39:51;42.65;;;19.60;;
70761;SDS011;58360;0.000;0.000;2023-01-20T09:42:54;45.58;;;20.42;;
70761;SDS011;58360;0.000;0.000;2023-01-20T09:51:37;31.95;;;17.02;;
70761;SDS011;58360;0.000;0.000;2023-01-20T09:54:39;43.20;;;18.35;;
70761;SDS011;58360;0.000;0.000;2023-01-20T09:57:11;40.45;;;18.58;;
70761;SDS011;58360;0.000;0.000;2023-01-20T09:59:43;36.35;;;15.73;;
70761;SDS011;58360;0.000;0.000;2023-01-20T10:02:28;33.60;;;15.68;;
70761;SDS011;58360;0.000;0.000;2023-01-20T10:05:03;33.97;;;16.40;;
70761;SDS011;58360;0.000;0.000;2023-01-20T10:07:44;31.27;;;15.57;;
70761;SDS011;58360;0.000;0.000;2023-01-20T10:10:17;39.60;;;15.70;;
70761;SDS011;58360;0.000;0.000;2023-01-20T10:15:29;31.63;;;15.40;;
70761;SDS011;58360;0.000;0.000;2023-01-20T10:18:02;30.40;;;14.15;;
70761;SDS011;58360;0.000;0.000;2023-01-20T10:20:46;32.42;;;14.15;;
70761;SDS011;58360;0.000;0.000;2023-01-20T10:23:18;31.15;;;13.65;;
70761;SDS011;58360;0.000;0.000;2023-01-20T10:26:14;23.77;;;12.68;;
70761;SDS011;58360;0.000;0.000;2023-01-20T10:29:03;27.20;;;12.90;;
70761;SDS011;58360;0.000;0.000;2023-01-20T10:31:41;28.75;;;12.85;;
70761;SDS011;58360;0.000;0.000;2023-01-20T10:34:14;29.88;;;12.27;;
70761;SDS011;58360;0.000;0.000;2023-01-20T10:36:54;30.42;;;13.48;;
70761;SDS011;58360;0.000;0.000;2023-01-20T10:42:23;32.20;;;12.63;;
70761;SDS011;58360;0.000;0.000;2023-01-20T10:44:52;28.50;;;11.93;;
70761;SDS011;58360;0.000;0.000;2023-01-20T10:47:30;30.13;;;12.98;;
70761;SDS011;58360;0.000;0.000;2023-01-20T10:55:52;32.80;;;16.65;;
70761;SDS011;58360;0.000;0.000;2023-01-20T10:58:36;31.98;;;16.30;;
70761;SDS011;58360;0.000;0.000;2023-01-20T11:01:10;26.90;;;15.32;;
70761;SDS011;58360;0.000;0.000;2023-01-20T11:03:42;20.85;;;13.70;;
70761;SDS011;58360;0.000;0.000;2023-01-20T11:06:20;22.00;;;12.73;;
70761;SDS011;58360;0.000;0.000;2023-01-20T11:08:51;21.33;;;12.65;;
70761;SDS011;58360;0.000;0.000;2023-01-20T11:11:20;21.90;;;12.50;;
70761;SDS011;58360;0.000;0.000;2023-01-20T11:13:48;20.55;;;12.18;;
70761;SDS011;58360;0.000;0.000;2023-01-20T11:16:16;16.52;;;10.55;;
70761;SDS011;58360;0.000;0.000;2023-01-20T11:18:57;15.20;;;8.82;;
70761;SDS011;58360;0.000;0.000;2023-01-20T11:21:30;12.63;;;8.23;;
70761;SDS011;58360;0.000;0.000;2023-01-20T11:29:24;13.88;;;8.32;;
70761;SDS011;58360;0.000;0.000;2023-01-20T11:31:55;17.15;;;9.40;;
70761;SDS011;58360;0.000;0.000;2023-01-20T11:34:30;16.95;;;8.65;;
70761;SDS011;58360;0.000;0.000;2023-01-20T11:42:21;21.05;;;9.88;;
70761;SDS011;58360;0.000;0.000;2023-01-20T11:52:31;12.75;;;8.45;;
70761;SDS011;58360;0.000;0.000;2023-01-20T11:55:19;12.55;;;8.50;;
70761;SDS011;58360;0.000;0.000;2023-01-20T11:57:53;11.98;;;8.40;;
70761;SDS011;58360;0.000;0.000;2023-01-20T12:00:42;13.80;;;8.43;;
70761;SDS011;58360;0.000;0.000;2023-01-20T12:09:03;12.45;;;7.30;;
70761;SDS011;58360;0.000;0.000;2023-01-20T12:11:14;13.55;;;7.53;;
70761;SDS011;58360;0.000;0.000;2023-01-20T12:13:53;13.77;;;7.57;;
70761;SDS011;58360;0.000;0.000;2023-01-20T12:22:43;14.07;;;8.52;;
70761;SDS011;58360;0.000;0.000;2023-01-20T12:25:43;14.02;;;8.70;;
70761;SDS011;58360;0.000;0.000;2023-01-20T12:28:20;14.10;;;7.78;;
70761;SDS011;58360;0.000;0.000;2023-01-20T12:31:10;13.60;;;8.88;;
70761;SDS011;58360;0.000;0.000;2023-01-20T12:33:47;18.77;;;8.75;;
70761;SDS011;58360;0.000;0.000;2023-01-20T12:36:23;13.77;;;9.07;;
70761;SDS011;58360;0.000;0.000;2023-01-20T12:44:32;15.68;;;9.55;;
70761;SDS011;58360;0.000;0.000;2023-01-20T12:47:32;13.98;;;9.18;;
70761;SDS011;58360;0.000;0.000;2023-01-20T12:56:10;16.77;;;8.82;;
70761;SDS011;58360;0.000;0.000;2023-01-20T12:58:47;14.73;;;9.32;;
70761;SDS011;58360;0.000;0.000;2023-01-20T13:07:19;18.50;;;10.75;;
70761;SDS011;58360;0.000;0.000;2023-01-20T13:12:59;15.35;;;8.82;;
70761;SDS011;58360;0.000;0.000;2023-01-20T13:15:41;12.67;;;8.30;;
70761;SDS011;58360;0.000;0.000;2023-01-20T13:20:57;10.27;;;7.68;;
70761;SDS011;58360;0.000;0.000;2023-01-20T13:23:24;12.30;;;8.13;;
70761;SDS011;58360;0.000;0.000;2023-01-20T13:25:59;13.20;;;8.82;;
70761;SDS011;58360;0.000;0.000;2023-01-20T13:28:29;13.43;;;7.95;;
70761;SDS011;58360;0.000;0.000;2023-01-20T13:30:58;11.55;;;8.48;;
70761;SDS011;58360;0.000;0.000;2023-01-20T13:33:33;15.38;;;8.68;;
70761;SDS011;58360;0.000;0.000;2023-01-20T13:36:22;12.52;;;8.35;;
70761;SDS011;58360;0.000;0.000;2023-01-20T13:38:49;12.50;;;8.13;;
70761;SDS011;58360;0.000;0.000;2023-01-20T13:41:47;13.07;;;8.40;;
70761;SDS011;58360;0.000;0.000;2023-01-20T13:44:25;11.27;;;7.60;;
70761;SDS011;58360;0.000;0.000;2023-01-20T13:47:09;12.02;;;8.32;;
70761;SDS011;58360;0.000;0.000;2023-01-20T13:49:51;13.95;;;10.50;;
70761;SDS011;58360;0.000;0.000;2023-01-20T14:01:09;14.23;;;9.45;;
70761;SDS011;58360;0.000;0.000;2023-01-20T14:03:39;17.02;;;10.52;;
70761;SDS011;58360;0.000;0.000;2023-01-20T14:08:40;16.73;;;10.13;;
70761;SDS011;58360;0.000;0.000;2023-01-20T14:11:42;18.58;;;10.90;;
70761;SDS011;58360;0.000;0.000;2023-01-20T14:14:16;20.20;;;9.38;;
70761;SDS011;58360;0.000;0.000;2023-01-20T14:16:43;20.55;;;10.05;;
70761;SDS011;58360;0.000;0.000;2023-01-20T14:19:30;14.90;;;10.80;;
70761;SDS011;58360;0.000;0.000;2023-01-20T14:21:59;13.10;;;9.32;;
70761;SDS011;58360;0.000;0.000;2023-01-20T14:24:28;14.15;;;10.15;;
70761;SDS011;58360;0.000;0.000;2023-01-20T14:29:40;14.13;;;9.45;;
70761;SDS011;58360;0.000;0.000;2023-01-20T14:32:18;13.93;;;10.35;;
70761;SDS011;58360;0.000;0.000;2023-01-20T14:34:45;13.07;;;9.02;;
70761;SDS011;58360;0.000;0.000;2023-01-20T14:37:20;17.02;;;10.07;;
70761;SDS011;58360;0.000;0.000;2023-01-20T14:39:52;15.50;;;10.90;;
70761;SDS011;58360;0.000;0.000;2023-01-20T14:42:22;14.07;;;10.63;;
70761;SDS011;58360;0.000;0.000;2023-01-20T14:44:50;17.63;;;10.63;;
70761;SDS011;58360;0.000;0.000;2023-01-20T14:47:17;17.33;;;10.85;;
70761;SDS011;58360;0.000;0.000;2023-01-20T14:49:46;16.30;;;11.93;;
70761;SDS011;58360;0.000;0.000;2023-01-20T14:52:25;16.88;;;11.60;;
70761;SDS011;58360;0.000;0.000;2023-01-20T14:54:53;21.02;;;11.00;;
70761;SDS011;58360;0.000;0.000;2023-01-20T14:57:53;24.17;;;16.08;;
70761;SDS011;58360;0.000;0.000;2023-01-20T15:03:02;19.52;;;12.48;;
70761;SDS011;58360;0.000;0.000;2023-01-20T15:05:39;19.23;;;11.23;;
70761;SDS011;58360;0.000;0.000;2023-01-20T15:14:03;18.20;;;11.82;;
70761;SDS011;58360;0.000;0.000;2023-01-20T15:21:46;17.05;;;11.35;;
70761;SDS011;58360;0.000;0.000;2023-01-20T15:24:19;18.27;;;10.70;;
70761;SDS011;58360;0.000;0.000;2023-01-20T15:26:46;14.82;;;10.15;;
70761;SDS011;58360;0.000;0.000;2023-01-20T15:29:21;17.08;;;12.40;;
70761;SDS011;58360;0.000;0.000;2023-01-20T15:31:52;14.57;;;9.77;;
70761;SDS011;58360;0.000;0.000;2023-01-20T15:34:21;15.07;;;10.25;;
70761;SDS011;58360;0.000;0.000;2023-01-20T15:36:48;14.60;;;9.20;;
70761;SDS011;58360;0.000;0.000;2023-01-20T15:39:16;14.73;;;8.40;;
70761;SDS011;58360;0.000;0.000;2023-01-20T15:41:43;14.65;;;8.30;;
70761;SDS011;58360;0.000;0.000;2023-01-20T15:44:12;12.85;;;8.00;;
70761;SDS011;58360;0.000;0.000;2023-01-20T15:46:39;12.57;;;7.15;;
70761;SDS011;58360;0.000;0.000;2023-01-20T15:49:11;11.90;;;7.00;;
70761;SDS011;58360;0.000;0.000;2023-01-20T15:51:41;20.25;;;11.00;;
70761;SDS011;58360;0.000;0.000;2023-01-20T15:54:08;17.80;;;11.07;;
70761;SDS011;58360;0.000;0.000;2023-01-20T15:56:35;18.38;;;12.02;;
70761;SDS011;58360;0.000;0.000;2023-01-20T15:59:16;23.80;;;13.98;;
70761;SDS011;58360;0.000;0.000;2023-01-20T16:01:46;10.98;;;7.55;;
70761;SDS011;58360;0.000;0.000;2023-01-20T16:04:13;16.33;;;9.45;;
70761;SDS011;58360;0.000;0.000;2023-01-20T16:06:39;14.88;;;9.10;;
70761;SDS011;58360;0.000;0.000;2023-01-20T16:09:39;16.55;;;8.07;;
70761;SDS011;58360;0.000;0.000;2023-01-20T16:12:01;14.95;;;8.70;;
70761;SDS011;58360;0.000;0.000;2023-01-20T16:14:27;15.68;;;9.30;;
70761;SDS011;58360;0.000;0.000;2023-01-20T16:16:53;17.35;;;10.07;;
70761;SDS011;58360;0.000;0.000;2023-01-20T16:19:19;16.10;;;10.07;;
70761;SDS011;58360;0.000;0.000;2023-01-20T16:21:44;17.35;;;10.27;;
70761;SDS011;58360;0.000;0.000;2023-01-20T16:24:10;20.45;;;10.68;;
70761;SDS011;58360;0.000;0.000;2023-01-20T16:26:36;18.27;;;10.60;;
70761;SDS011;58360;0.000;0.000;2023-01-20T16:29:02;17.60;;;10.27;;
70761;SDS011;58360;0.000;0.000;2023-01-20T16:31:31;14.68;;;8.77;;
70761;SDS011;58360;0.000;0.000;2023-01-20T16:33:57;14.45;;;8.65;;
70761;SDS011;58360;0.000;0.000;2023-01-20T16:36:23;13.05;;;8.02;;
70761;SDS011;58360;0.000;0.000;2023-01-20T16:38:53;13.35;;;8.05;;
70761;SDS011;58360;0.000;0.000;2023-01-20T16:41:19;12.02;;;7.70;;
70761;SDS011;58360;0.000;0.000;2023-01-20T16:43:47;13.05;;;7.57;;
70761;SDS011;58360;0.000;0.000;2023-01-20T16:46:17;11.48;;;7.60;;
70761;SDS011;58360;0.000;0.000;2023-01-20T16:48:46;12.23;;;7.38;;
70761;SDS011;58360;0.000;0.000;2023-01-20T16:51:16;12.95;;;7.63;;
70761;SDS011;58360;0.000;0.000;2023-01-20T16:53:46;12.02;;;7.90;;
70761;SDS011;58360;0.000;0.000;2023-01-20T16:56:18;10.63;;;7.32;;
70761;SDS011;58360;0.000;0.000;2023-01-20T16:58:47;12.30;;;7.03;;
70761;SDS011;58360;0.000;0.000;2023-01-20T17:01:14;14.50;;;8.52;;
70761;SDS011;58360;0.000;0.000;2023-01-20T17:03:46;12.68;;;7.93;;
70761;SDS011;58360;0.000;0.000;2023-01-20T17:06:18;14.65;;;10.10;;